»·PEaware :: SWA6432 KSAN-KSJC

SWA6432 :: KSAN-KSJC

FLIGHT INFORMATION

Flight Status: Arrived
Operator:
Southwest Airlines
More flights by this operator :: More flights under this callsign
Pilot: Martin A. (6413)
Aircraft: BOEING 737-800
(B738)
More flights by this aircraft type
Origin: KSAN San Diego Intl-Lindbergh
United States
Destination: KSJC Mineta San Jose Intl
United States
More flights between these airports :: More routes between these airports
Route: +PADRZ1 IKAYE DCT TESEA DCT SCTRR DCT TROXX SILCN4
File this flight plan on PilotEdge
Remarks:
Altitude:
(Current/Filed)
38,000ft
Speed:
(Current/Filed)
420kts
Departed: 01-Dec-17 04:30 PM
Arrived: 01-Dec-17 05:36 PM
Distance/Time
Traveled:
363nm/1:05
Distance/Time
To Go:
Arrived

Flight Plot

Page will automatically refresh every two minutes.

Flight plan parsing failed; only flown route is shown


Map Options




Map Legend


Flown Route
Filed Route
Departure Airport
Arrival Airport
Navaid (VOR, NDB)
Fix

Horizontal Profiles

Position Reports

Time Latitude Longitude Heading Altitude Ground
Speed
01-Dec-17 16:01 32.733103 -117.196728 138 18ft 0kts
01-Dec-17 16:02 32.733103 -117.196728 138 18ft 0kts
01-Dec-17 16:03 32.733103 -117.196728 138 18ft 0kts
01-Dec-17 16:04 32.733103 -117.196728 138 18ft 0kts
01-Dec-17 16:05 32.733103 -117.196728 138 18ft 0kts
01-Dec-17 16:06 32.733103 -117.196728 138 18ft 0kts
01-Dec-17 16:07 32.733103 -117.196728 138 18ft 0kts
01-Dec-17 16:08 32.733103 -117.196728 138 18ft 0kts
01-Dec-17 16:09 32.733103 -117.196728 138 18ft 0kts
01-Dec-17 16:10 32.733103 -117.196728 138 18ft 0kts
01-Dec-17 16:11 32.733103 -117.196728 138 18ft 0kts
01-Dec-17 16:12 32.733103 -117.196728 138 18ft 0kts
01-Dec-17 16:13 32.733103 -117.196728 138 18ft 0kts
01-Dec-17 16:14 32.733103 -117.196728 138 18ft 0kts
01-Dec-17 16:15 32.733103 -117.196728 138 18ft 0kts
01-Dec-17 16:16 32.733103 -117.196728 138 18ft 0kts
01-Dec-17 16:17 32.733103 -117.196728 138 18ft 0kts
01-Dec-17 16:18 32.733103 -117.196728 138 18ft 0kts
01-Dec-17 16:19 32.733103 -117.196728 138 18ft 0kts
01-Dec-17 16:20 32.733309 -117.196941 139 17ft 2kts
01-Dec-17 16:21 32.733823 -117.196962 188 17ft 2kts
01-Dec-17 16:22 32.734343 -117.197239 121 17ft 2kts
01-Dec-17 16:23 32.734414 -117.197446 105 17ft 0kts
01-Dec-17 16:24 32.734413 -117.197440 105 17ft 0kts
01-Dec-17 16:25 32.734022 -117.195818 106 19ft 0kts
01-Dec-17 16:26 32.733937 -117.195480 106 20ft 3kts
01-Dec-17 16:27 32.733333 -117.193049 106 21ft 8kts
01-Dec-17 16:28 32.732732 -117.190521 105 19ft 12kts
01-Dec-17 16:29 32.731379 -117.184887 107 17ft 18kts
01-Dec-17 16:30 32.730234 -117.180212 106 18ft 8kts
01-Dec-17 16:31 32.729670 -117.177924 106 21ft 5kts
01-Dec-17 16:32 32.729531 -117.177354 106 22ft 3kts
01-Dec-17 16:33 32.729610 -117.176405 67 23ft 6kts
01-Dec-17 16:34 32.730149 -117.175488 279 24ft 0kts
01-Dec-17 16:35 32.732674 -117.185796 286 20ft 148kts
01-Dec-17 16:36 32.750790 -117.236089 308 3282ft 170kts
01-Dec-17 16:37 32.785208 -117.293572 305 5711ft 244kts
01-Dec-17 16:38 32.829094 -117.363874 307 8882ft 289kts
01-Dec-17 16:39 32.868487 -117.425413 309 13637ft 227kts
01-Dec-17 16:40 32.915168 -117.497756 309 14770ft 320kts
01-Dec-17 16:41 32.970797 -117.584493 309 14990ft 334kts
01-Dec-17 16:42 33.027259 -117.672712 308 16426ft 342kts
01-Dec-17 16:43 33.089850 -117.756159 319 19894ft 345kts
01-Dec-17 16:44 33.149011 -117.816275 318 22164ft 357kts
01-Dec-17 16:45 33.223116 -117.896856 313 24808ft 369kts
01-Dec-17 16:46 33.293335 -117.982279 314 27266ft 375kts
01-Dec-17 16:47 33.365350 -118.069793 314 29963ft 366kts
01-Dec-17 16:48 33.436148 -118.155758 315 32164ft 360kts
01-Dec-17 16:49 33.503674 -118.237682 0 33971ft 0kts
01-Dec-17 16:50 33.571313 -118.319672 315 35510ft 351kts
01-Dec-17 16:51 33.639554 -118.402334 315 36822ft 350kts
01-Dec-17 16:52 33.707536 -118.484617 315 37876ft 350kts
01-Dec-17 16:53 33.776997 -118.568617 316 38035ft 366kts
01-Dec-17 16:54 33.848755 -118.655333 315 38035ft 384kts
01-Dec-17 16:55 33.924698 -118.747068 315 38037ft 404kts
01-Dec-17 16:56 34.005376 -118.844390 315 38031ft 416kts
01-Dec-17 16:57 34.086631 -118.942316 315 37983ft 409kts
01-Dec-17 16:58 34.149536 -119.017979 314 38020ft 388kts
01-Dec-17 16:59 34.233181 -119.119370 314 38016ft 365kts
01-Dec-17 17:00 34.302750 -119.204059 314 38016ft 349kts
01-Dec-17 17:01 34.332657 -119.240448 314 38040ft 357kts
01-Dec-17 17:02 34.404330 -119.327583 314 38038ft 377kts
01-Dec-17 17:03 34.469851 -119.407177 314 38034ft 395kts
01-Dec-17 17:04 34.548037 -119.502077 314 38026ft 414kts
01-Dec-17 17:05 34.625788 -119.596367 314 38014ft 414kts
01-Dec-17 17:06 34.704805 -119.692146 314 38019ft 414kts
01-Dec-17 17:07 34.786050 -119.790507 314 38021ft 414kts
01-Dec-17 17:08 34.865060 -119.886062 314 38025ft 414kts
01-Dec-17 17:09 34.945788 -119.983579 313 38025ft 409kts
01-Dec-17 17:10 35.025993 -120.080391 312 38030ft 405kts
01-Dec-17 17:11 35.104567 -120.175179 311 38043ft 406kts
01-Dec-17 17:12 35.185167 -120.268573 318 38045ft 409kts
01-Dec-17 17:13 35.276400 -120.352180 319 38043ft 410kts
01-Dec-17 17:14 35.364443 -120.433030 319 38040ft 410kts
01-Dec-17 17:15 35.455371 -120.516483 319 38055ft 410kts
01-Dec-17 17:16 35.547371 -120.598295 323 38069ft 412kts
01-Dec-17 17:17 35.643611 -120.673979 322 38077ft 412kts
01-Dec-17 17:18 35.735516 -120.746391 322 37872ft 365kts
01-Dec-17 17:19 35.816913 -120.810580 321 36114ft 333kts
01-Dec-17 17:20 35.894318 -120.871634 321 34487ft 346kts
01-Dec-17 17:21 35.973902 -120.934316 322 32802ft 348kts
01-Dec-17 17:22 36.050522 -121.001500 317 30977ft 351kts
01-Dec-17 17:23 36.121498 -121.069431 318 29136ft 387kts
01-Dec-17 17:24 36.207808 -121.151694 318 26826ft 385kts
01-Dec-17 17:25 36.290700 -121.230758 318 24642ft 373kts
01-Dec-17 17:26 36.371375 -121.307818 318 22504ft 363kts
01-Dec-17 17:27 36.449862 -121.383545 318 20418ft 353kts
01-Dec-17 17:28 36.532276 -121.444865 336 18419ft 354kts
01-Dec-17 17:29 36.623922 -121.483616 337 16365ft 343kts
01-Dec-17 17:30 36.712761 -121.521150 337 14512ft 335kts
01-Dec-17 17:31 36.799617 -121.558001 338 12691ft 327kts
01-Dec-17 17:32 36.884877 -121.594276 338 10900ft 320kts
01-Dec-17 17:33 36.968098 -121.629630 338 9147ft 311kts
01-Dec-17 17:34 37.047306 -121.663276 338 7487ft 293kts
01-Dec-17 17:35 37.109198 -121.689617 339 6187ft 280kts
01-Dec-17 17:36 37.177658 -121.728473 318 4799ft 265kts
01-Dec-17 17:37 37.232431 -121.787593 317 3313ft 246kts
01-Dec-17 17:38 37.278730 -121.838069 318 2125ft 189kts
01-Dec-17 17:39 37.313603 -121.876151 318 1182ft 150kts
01-Dec-17 17:40 37.342084 -121.907320 318 464ft 132kts
01-Dec-17 17:41 37.365820 -121.933383 318 47ft 19kts
01-Dec-17 17:42 37.367716 -121.933507 48 45ft 2kts
01-Dec-17 17:43 37.368859 -121.931973 13 43ft 5kts
01-Dec-17 17:44 37.370711 -121.933341 30 39ft 9kts
01-Dec-17 17:45 37.371198 -121.932476 68 38ft 0kts
01-Dec-17 17:46 37.371198 -121.932476 68 38ft 0kts

Navigation Log

Ident Type
Flight plan parsing failed, navigation log unavailable